Latest Weather Observations for Hobart Airport

IDT60801

Issued at 2:05 pm EST Monday 15 September 2014 (issued every 30 minutes, with the page automatically refreshed every 10 minutes)

About weather observations | Map of weather stations | Latest weather observations for TAS | Other Formats
Station Details ID: 094008 Name: HOBART AIRPORT Lat: -42.83 Lon: 147.50 Height: 4.0 m
Data from the previous 72 hours. | See also: Recent months at Hobart Airport
Date/Time
EST
Temp
°C
App
Temp
°C
Dew
Point
Rel
Hum
%
Delta-T
°C
Wind Press
QNH
hPa
Press
MSL
hPa
Rain
since 9 am
mm
Dir
 
Spd
km/h
Gust
km/h
Spd
kts
Gust
kts
15/02:00pm 12.1 6.5 1.2 47 4.6 SE 20 28 11 15 1017.0 1017.0 0.0
15/01:30pm 11.9 6.6 -0.4 42 5.0 SE 17 26 9 14 1017.2 1017.2 0.0
15/01:00pm 11.6 6.4 0.1 45 4.7 SE 17 22 9 12 1017.6 1017.6 0.0
15/12:30pm 11.5 6.6 -0.7 43 4.9 SSW 15 20 8 11 1018.1 1018.1 0.0
15/12:00pm 11.7 6.1 -0.1 44 4.8 SW 19 22 10 12 1018.4 1018.4 0.0
15/11:30am 11.6 5.7 -0.6 43 4.9 S 20 26 11 14 1018.5 1018.5 0.0
15/11:00am 12.0 7.5 0.0 43 4.9 SSW 13 24 7 13 1018.8 1018.8 0.0
15/10:30am 10.4 4.7 -0.7 46 4.4 WSW 19 22 10 12 1019.1 1019.1 0.0
15/10:00am 10.4 6.8 0.9 52 3.9 NNW 9 17 5 9 1019.2 1019.2 0.0
15/09:30am 9.3 5.0 0.9 55 3.4 NW 13 19 7 10 1019.1 1019.1 0.0
15/09:00am 7.9 2.4 0.6 60 2.9 NW 19 26 10 14 1019.1 1019.1 0.2
15/08:30am 7.1 1.4 0.5 63 2.6 NW 20 26 11 14 1019.0 1019.0 0.2
15/08:00am 6.2 0.5 0.3 66 2.3 NW 20 26 11 14 1019.1 1019.1 0.2
15/07:30am 6.0 0.8 0.0 65 2.3 NNW 17 26 9 14 1018.9 1018.9 0.2
15/07:00am 6.3 1.1 0.4 66 2.3 NW 17 22 9 12 1018.7 1018.7 0.2
15/06:30am 5.9 -0.2 0.2 67 2.2 NW 22 28 12 15 1018.8 1018.8 0.2
15/05:30am 5.3 -0.2 0.4 70 1.9 NW 19 22 10 12 1018.5 1018.5 0.2
15/05:00am 5.0 -0.5 0.3 71 1.8 NW 19 22 10 12 1018.5 1018.5 0.2
15/04:30am 5.7 0.6 0.8 71 1.9 NW 17 20 9 11 1018.5 1018.5 0.2
15/04:00am 5.5 1.2 -1.3 61 2.5 WNW 11 15 6 8 1018.4 1018.4 0.2
15/03:30am 5.6 0.9 -1.5 60 2.6 W 13 15 7 8 1018.4 1018.4 0.2
15/03:00am 5.7 0.1 0.2 68 2.1 NW 19 22 10 12 1018.6 1018.6 0.2
15/02:30am 7.1 2.4 1.1 65 2.4 NW 15 20 8 11 1018.6 1018.6 0.2
15/02:00am 6.7 2.4 0.9 66 2.3 NW 13 15 7 8 1018.7 1018.7 0.2
15/01:30am 6.6 2.9 -0.1 62 2.6 W 9 11 5 6 1018.9 1018.9 0.2
15/01:00am 7.1 3.0 -0.1 60 2.8 WSW 11 15 6 8 1019.2 1019.2 0.2
15/12:30am 6.2 1.3 -0.7 61 2.6 W 15 19 8 10 1019.1 1019.1 0.2
15/12:00am 5.5 0.7 0.0 68 2.1 W 15 17 8 9 1019.0 1019.0 0.2
 
Date/Time
EST
Temp
°C
App
Temp
°C
Dew
Point
Rel
Hum
%
Delta-T
°C
Wind Press
QNH
hPa
Press
MSL
hPa
Rain
since 9 am
mm
Dir
 
Spd
km/h
Gust
km/h
Spd
kts
Gust
kts
14/11:30pm 6.6 1.5 0.5 65 2.4 NW 17 20 9 11 1019.0 1019.0 0.2
14/11:00pm 6.9 2.5 0.5 64 2.5 WNW 13 17 7 9 1019.0 1019.0 0.2
14/10:30pm 8.0 2.7 -0.8 54 3.4 W 17 26 9 14 1019.0 1019.0 0.2
14/10:00pm 8.1 2.7 -1.0 52 3.5 W 17 26 9 14 1019.0 1019.0 0.2
14/09:30pm 8.5 2.6 -1.1 51 3.7 WSW 20 28 11 15 1019.0 1019.0 0.2
14/09:00pm 8.8 3.8 -1.4 49 3.9 W 15 17 8 9 1019.1 1019.1 0.2
14/08:30pm 8.1 3.5 -1.4 51 3.6 W 13 19 7 10 1018.9 1018.9 0.2
14/08:00pm 8.9 3.1 -1.6 47 4.0 WSW 19 26 10 14 1018.6 1018.6 0.2
14/07:30pm 9.2 4.5 -1.8 46 4.2 WSW 13 19 7 10 1018.3 1018.3 0.2
14/07:00pm 9.5 4.1 -1.7 45 4.3 WSW 17 24 9 13 1017.9 1017.9 0.2
14/06:30pm 10.1 4.0 -2.2 42 4.7 WSW 20 32 11 17 1017.6 1017.6 0.2
14/06:00pm 10.2 4.1 -2.4 41 4.8 W 20 32 11 17 1017.4 1017.4 0.2
14/05:30pm 10.9 3.2 -2.8 38 5.2 WSW 28 37 15 20 1016.9 1016.9 0.2
14/05:00pm 11.9 4.1 -3.4 34 5.8 WSW 28 37 15 20 1016.6 1016.6 0.2
14/04:30pm 13.0 5.2 -3.4 32 6.3 W 28 37 15 20 1016.3 1016.3 0.2
14/04:00pm 12.9 5.9 -3.2 32 6.2 WSW 24 33 13 18 1016.2 1016.2 0.2
14/03:30pm 13.3 6.5 -2.1 34 6.1 SW 24 39 13 21 1016.0 1016.0 0.2
14/03:00pm 14.1 6.3 -1.1 35 6.2 SW 30 39 16 21 1016.0 1016.0 0.2
14/02:30pm 13.9 6.1 -1.0 36 6.1 WSW 30 48 16 26 1015.6 1015.6 0.2
14/02:25pm 14.3 7.0 0.3 38 5.9 WSW 28 46 15 25 1015.6 1015.6 0.2
14/02:00pm 14.3 5.6 -0.4 36 6.1 WSW 35 50 19 27 1015.3 1015.3 0.2
14/01:30pm 14.7 6.9 -0.7 34 6.4 SW 30 39 16 21 1015.1 1015.1 0.2
14/01:00pm 14.7 6.2 -1.5 33 6.6 WSW 33 52 18 28 1014.8 1014.8 0.2
14/12:51pm 14.7 6.6 -0.4 35 6.3 WSW 32 50 17 27 1015.0 1015.0 0.2
14/12:30pm 13.9 5.8 1.0 41 5.5 SW 33 48 18 26 1015.2 1015.2 0.2
14/12:00pm 14.2 5.9 -2.0 32 6.5 WSW 32 50 17 27 1015.2 1015.2 0.0
14/11:54am 14.5 6.5 -2.2 31 6.7 SW 30 50 16 27 1015.2 1015.2 0.0
14/11:30am 14.0 5.5 -3.6 29 6.8 SW 32 48 17 26 1015.2 1015.2 0.0
14/11:23am 14.0 5.7 -2.0 33 6.4 WSW 32 50 17 27 1015.3 1015.3 0.0
14/11:00am 13.9 6.8 -1.4 35 6.2 WSW 26 39 14 21 1015.3 1015.3 0.0
14/10:30am 13.1 5.5 -2.4 34 6.1 W 28 41 15 22 1015.3 1015.3 0.0
14/10:00am 13.2 5.7 -1.1 37 5.8 SW 28 37 15 20 1015.5 1015.5 0.0
14/09:30am 12.9 6.2 -0.9 38 5.6 WSW 24 37 13 20 1015.7 1015.7 0.0
14/09:00am 12.4 5.2 -1.7 37 5.6 WSW 26 35 14 19 1015.6 1015.6 0.4
14/08:30am 12.4 4.3 0.0 42 5.1 WSW 32 46 17 25 1015.0 1015.0 0.4
14/08:20am 12.1 2.6 -1.1 40 5.3 W 39 48 21 26 1015.1 1015.1 0.4
14/08:00am 12.1 7.0 3.0 53 4.0 SW 19 30 10 16 1015.4 1015.4 0.4
14/07:30am 11.2 3.4 1.8 52 4.0 WSW 32 48 17 26 1014.4 1014.4 0.4
14/07:00am 11.0 4.2 3.2 58 3.4 SW 28 46 15 25 1014.2 1014.2 0.4
14/06:50am 10.6 3.6 4.3 65 2.8 SW 30 56 16 30 1014.1 1014.1 0.4
14/06:30am 10.0 3.1 6.6 79 1.6 WSW 32 35 17 19 1013.7 1013.7 0.4
14/06:00am 9.6 6.2 7.5 87 1.0 WSW 15 20 8 11 1012.7 1012.7 0.2
14/05:30am 10.2 6.6 6.6 78 1.7 WSW 15 20 8 11 1012.7 1012.7 0.2
14/05:00am 10.8 4.5 5.6 70 2.4 WNW 28 37 15 20 1012.1 1012.1 0.0
14/04:30am 11.3 6.5 4.4 62 3.1 NW 19 26 10 14 1011.7 1011.7 0.0
14/04:00am 10.3 5.4 4.2 66 2.7 NNW 19 24 10 13 1011.8 1011.8 0.0
14/03:30am 10.7 5.8 4.2 64 2.9 NNW 19 28 10 15 1012.1 1012.1 0.0
14/03:00am 10.2 6.1 4.4 67 2.6 NNW 15 20 8 11 1012.7 1012.7 0.0
14/02:30am 10.3 6.2 4.5 67 2.6 NNW 15 22 8 12 1013.5 1013.5 0.0
14/02:00am 9.4 5.9 5.4 76 1.8 NNW 13 15 7 8 1014.3 1014.3 0.0
14/01:30am 8.4 5.9 5.0 79 1.5 NNW 7 13 4 7 1015.2 1015.2 0.0
14/01:00am 8.1 5.5 4.4 77 1.6 N 7 11 4 6 1015.6 1015.6 0.0
14/12:30am 8.5 5.2 4.7 77 1.7 N 11 15 6 8 1015.9 1015.9 0.0
14/12:00am 9.2 4.8 5.0 75 1.9 NNW 17 22 9 12 1016.0 1016.0 0.0
 
Date/Time
EST
Temp
°C
App
Temp
°C
Dew
Point
Rel
Hum
%
Delta-T
°C
Wind Press
QNH
hPa
Press
MSL
hPa
Rain
since 9 am
mm
Dir
 
Spd
km/h
Gust
km/h
Spd
kts
Gust
kts
13/11:30pm 9.3 4.3 4.8 73 2.0 NW 20 24 11 13 1016.3 1016.3 0.0
13/11:00pm 9.9 5.5 5.0 71 2.2 NNW 17 22 9 12 1016.3 1016.3 0.0
13/10:30pm 9.7 5.3 5.0 72 2.1 NNW 17 19 9 10 1016.7 1016.7 0.0
13/10:00pm 9.6 5.0 5.7 76 1.8 NW 19 24 10 13 1017.0 1017.0 0.0
13/09:30pm 10.6 5.9 5.3 70 2.4 WNW 19 20 10 11 1017.1 1017.1 0.0
13/09:00pm 11.7 7.3 4.6 62 3.2 WNW 17 24 9 13 1017.2 1017.2 0.0
13/08:30pm 11.7 7.6 4.4 61 3.3 WNW 15 26 8 14 1017.3 1017.3 0.0
13/08:00pm 12.0 7.0 4.5 60 3.4 WNW 20 30 11 16 1017.4 1017.4 0.0
13/07:30pm 12.4 8.8 5.0 60 3.4 NW 13 17 7 9 1017.2 1017.2 0.0
13/07:00pm 12.6 8.6 4.7 58 3.6 WNW 15 19 8 10 1017.2 1017.2 0.0
13/06:30pm 11.8 9.6 5.5 65 2.9 N 6 7 3 4 1017.2 1017.2 0.0
13/06:00pm 13.6 9.9 4.7 55 4.1 WNW 13 17 7 9 1017.1 1017.1 0.0
13/05:30pm 14.9 10.5 4.6 50 4.8 WNW 17 20 9 11 1017.1 1017.1 0.0
13/05:00pm 16.6 12.7 3.3 41 6.1 WNW 13 17 7 9 1016.9 1016.9 0.0
13/04:30pm 16.8 11.4 2.7 39 6.4 NW 20 28 11 15 1016.9 1016.9 0.0
13/04:00pm 17.5 13.5 2.9 37 6.7 W 13 17 7 9 1017.0 1017.0 0.0
13/03:30pm 18.0 14.4 3.1 37 6.9 SSW 11 17 6 9 1016.9 1016.9 0.0
13/03:00pm 17.0 11.8 3.6 41 6.2 W 20 32 11 17 1017.1 1017.1 0.0
13/02:30pm 17.8 11.3 2.7 36 6.9 NW 26 35 14 19 1017.0 1017.0 0.0
13/02:00pm 17.8 10.9 2.4 35 7.0 NW 28 37 15 20 1017.1 1017.1 0.0
13/01:30pm 17.0 10.1 2.4 37 6.6 WNW 28 33 15 18 1017.3 1017.3 0.0
13/01:00pm 16.0 10.9 3.0 41 5.9 NW 19 28 10 15 1017.7 1017.7 0.0
13/12:30pm 16.9 11.3 3.2 40 6.3 NW 22 28 12 15 1018.2 1018.2 0.0
13/12:00pm 16.3 10.3 3.4 42 5.9 NW 24 30 13 16 1018.7 1018.7 0.0
13/11:30am 15.7 8.1 3.1 43 5.7 NW 32 37 17 20 1018.7 1018.7 0.0
13/11:00am 15.2 10.2 3.6 46 5.3 NNW 19 28 10 15 1019.4 1019.4 0.0
13/10:30am 15.4 9.6 4.4 48 5.1 NW 24 32 13 17 1019.8 1019.8 0.0
13/10:00am 14.0 8.3 4.7 53 4.3 NW 24 32 13 17 1019.9 1019.9 0.0
13/09:30am 13.1 8.1 4.6 56 3.9 NNW 20 28 11 15 1020.1 1020.1 0.0
13/09:00am 12.2 8.0 5.5 63 3.1 NNW 17 24 9 13 1020.5 1020.5 0.0
13/08:30am 11.9 7.7 5.6 65 2.9 NNW 17 24 9 13 1020.4 1020.4 0.0
13/08:00am 11.4 7.4 5.0 65 2.9 NNW 15 19 8 10 1020.4 1020.4 0.0
13/07:30am 10.6 6.4 5.6 71 2.3 NW 17 20 9 11 1020.3 1020.3 0.0
13/07:00am 10.1 6.2 5.5 73 2.1 NNW 15 20 8 11 1020.2 1020.2 0.0
13/06:30am 10.1 5.2 5.2 71 2.2 NW 20 28 11 15 1020.0 1020.0 0.0
13/06:00am 9.7 6.6 5.5 75 1.9 NW 11 19 6 10 1019.7 1019.7 0.0
13/05:30am 10.3 6.7 5.2 70 2.3 N 13 20 7 11 1019.7 1019.7 0.0
13/05:00am 10.6 7.1 5.3 70 2.4 NNW 13 20 7 11 1019.7 1019.7 0.0
13/04:30am 10.6 6.4 5.6 71 2.3 NNW 17 26 9 14 1019.6 1019.6 0.0
13/04:00am 10.9 5.6 5.2 68 2.6 NNW 22 33 12 18 1019.5 1019.5 0.0
13/03:30am 11.3 7.3 4.7 64 3.0 NNW 15 26 8 14 1019.8 1019.8 0.0
13/03:00am 11.1 6.4 5.2 67 2.7 NNW 19 24 10 13 1019.8 1019.8 0.0
13/02:30am 11.2 6.8 4.8 64 2.9 NNW 17 28 9 15 1019.7 1019.7 0.0
13/02:00am 11.3 6.5 4.4 62 3.1 NNW 19 26 10 14 1019.9 1019.9 0.0
13/01:30am 11.0 6.0 4.8 65 2.8 NNW 20 28 11 15 1020.0 1020.0 0.0
13/01:00am 11.0 6.6 4.8 65 2.8 NNW 17 26 9 14 1020.0 1020.0 0.0
13/12:30am 11.0 6.7 5.1 67 2.7 NNW 17 24 9 13 1020.1 1020.1 0.0
13/12:00am 11.3 6.0 5.2 66 2.8 NW 22 28 12 15 1020.2 1020.2 0.0
 
Date/Time
EST
Temp
°C
App
Temp
°C
Dew
Point
Rel
Hum
%
Delta-T
°C
Wind Press
QNH
hPa
Press
MSL
hPa
Rain
since 9 am
mm
Dir
 
Spd
km/h
Gust
km/h
Spd
kts
Gust
kts
12/11:30pm 11.5 6.2 4.9 64 3.0 NW 22 30 12 16 1020.1 1020.1 0.0
12/11:00pm 11.1 6.9 5.7 69 2.5 NNW 17 26 9 14 1020.3 1020.3 0.0
12/10:30pm 11.0 7.2 5.8 70 2.4 NNW 15 19 8 10 1020.5 1020.5 0.0
12/10:00pm 10.8 7.3 5.6 70 2.4 NNW 13 17 7 9 1020.6 1020.6 0.0
12/09:30pm 11.0 7.2 5.8 70 2.4 NW 15 17 8 9 1020.5 1020.5 0.0
12/09:00pm 11.5 6.3 5.7 67 2.7 NW 22 30 12 16 1020.6 1020.6 0.0
12/08:30pm 12.0 8.0 4.7 61 3.3 NNW 15 22 8 12 1020.5 1020.5 0.0
12/08:00pm 11.8 7.4 5.0 63 3.1 WNW 17 20 9 11 1020.2 1020.2 0.0
12/07:30pm 11.9 7.6 5.1 63 3.1 NW 17 19 9 10 1020.2 1020.2 0.0
12/07:00pm 12.5 7.5 4.6 58 3.6 NNW 20 26 11 14 1019.9 1019.9 0.0
12/06:30pm 12.2 7.8 4.7 60 3.4 NW 17 20 9 11 1019.5 1019.5 0.0
12/06:00pm 12.6 7.6 4.7 58 3.6 NW 20 28 11 15 1019.2 1019.2 0.0
12/05:30pm 13.2 9.1 4.2 54 4.1 NNW 15 19 8 10 1019.1 1019.1 0.0
12/05:00pm 14.0 9.2 4.7 53 4.3 NW 19 26 10 14 1019.3 1019.3 0.0
12/04:30pm 13.6 8.9 5.0 56 4.0 NNW 19 33 10 18 1019.3 1019.3 0.0
12/04:00pm 13.5 9.5 5.1 57 3.9 NNW 15 22 8 12 1019.4 1019.4 0.0
12/03:30pm 12.8 9.2 5.0 59 3.6 NNW 13 17 7 9 1019.6 1019.6 0.0
12/03:00pm 12.1 8.7 5.9 66 2.9 NNW 13 20 7 11 1019.6 1019.6 0.0
12/02:30pm 12.4 7.0 4.7 59 3.5 NNW 22 30 12 16 1019.6 1019.6 0.0

Other Formats:

Comma delimited format used in spreadsheet applications
http://www.bom.gov.au/fwo/IDT60801/IDT60801.94975.axf

JavaScript Object Notation format (JSON) in row-major order
http://www.bom.gov.au/fwo/IDT60801/IDT60801.94975.json